Main page
METAR-TAF:

METAR-TAF

Airports :

RAF Benson

Benson, England

latitude: 51-37N, longitude: 001-05W, elevation: 63 m

Current weather observation

The report was made 1 hour and 9 minutes ago, at 05:50 UTC
Wind 10 kt from the West
Temperature 11°C
Humidity 66%
Pressure 996 hPa
Visibility 10 km or more

METAR: EGUB 050550Z AUTO 28010KT 9999 // FEW050/// BKN100/// 11/05 Q0996

Time: 07:59 (06:59 UTC)

Forecast

The report was made 8 hours and 22 minutes ago, at 22:37 UTC
Forecast valid from 05 at 00 UTC to 05 at 03 UTC
Wind 7 kt from the West/Northwest
Visibility 10 km or more
Broken clouds at a height of 4000 ft
Probability 30% :
Temporary
from 05 at 00 UTC to 05 at 02 UTC
Visibility: 6000 m
Scattered clouds at a height of 2200 ft
rain showers

TAF: EGUB 042237Z 0500/0503 29007KT 9999 BKN040 PROB30 TEMPO 0500/0502 6000 SHRA SCT022

Weather observations and forecasts of more than 4000 airports (METAR and TAF reports).

The available stations are represented by yellow and red dots on the map.

Hover mouse over dot to see the name of the station.

Then click to see weather observations and forecasts.

To change the map : click on the green buttons with a black cross to zoom in, on the green button with a dash to zoom out, or on the green arrows for adjacent maps.


METAR-TAF: